Cumberland, Rhode Island
Current Conditions -  °F | °C
As of 5:15 PM on Wednesday 28 Jan 2015 (Local Time) from KSFZ Reporting Station
Clear Clear  
Wind Chill:   Ceiling: Unl
Heat Index: 19°   Visibility: 10mi
Dew Point:   Wind: 9mph
Humidity: 58%   Direction: 320°NW
Pressure: 30.03"   Gusts: NA
Location:  41.95°N, 71.42°W
Report Text: KSFZ 282215Z 32008KT 10SM CLR M07/M14 A3003 RMK AO1
Loading
Personal Weather Stations






























Interactive Weather Map New forecast layout! Learn more

10-Day Weather Forecast

Advertisements
Track Severe Weather on mobile